sensor_id;sensor_type;location;lat;lon;timestamp;P1;durP1;ratioP1;P2;durP2;ratioP2
21301;SDS011;10810;48.270;9.996;2024-01-16T00:00:31;4.40;;;1.87;;
21301;SDS011;10810;48.270;9.996;2024-01-16T00:02:59;6.10;;;2.00;;
21301;SDS011;10810;48.270;9.996;2024-01-16T00:05:26;5.53;;;2.07;;
21301;SDS011;10810;48.270;9.996;2024-01-16T00:07:56;4.77;;;1.97;;
21301;SDS011;10810;48.270;9.996;2024-01-16T00:10:39;5.17;;;1.90;;
21301;SDS011;10810;48.270;9.996;2024-01-16T00:21:41;4.33;;;1.60;;
21301;SDS011;10810;48.270;9.996;2024-01-16T00:24:13;7.83;;;2.10;;
21301;SDS011;10810;48.270;9.996;2024-01-16T00:26:57;5.27;;;2.20;;
21301;SDS011;10810;48.270;9.996;2024-01-16T00:29:24;5.63;;;2.00;;
21301;SDS011;10810;48.270;9.996;2024-01-16T00:31:52;3.97;;;2.20;;
21301;SDS011;10810;48.270;9.996;2024-01-16T00:34:19;3.70;;;1.97;;
21301;SDS011;10810;48.270;9.996;2024-01-16T00:36:52;5.70;;;2.10;;
21301;SDS011;10810;48.270;9.996;2024-01-16T00:39:26;5.33;;;2.10;;
21301;SDS011;10810;48.270;9.996;2024-01-16T00:41:59;8.93;;;2.43;;
21301;SDS011;10810;48.270;9.996;2024-01-16T00:44:39;6.03;;;2.00;;
21301;SDS011;10810;48.270;9.996;2024-01-16T00:47:06;4.80;;;2.10;;
21301;SDS011;10810;48.270;9.996;2024-01-16T00:49:35;8.43;;;2.20;;
21301;SDS011;10810;48.270;9.996;2024-01-16T00:52:05;7.33;;;2.10;;
21301;SDS011;10810;48.270;9.996;2024-01-16T00:54:45;4.57;;;1.90;;
21301;SDS011;10810;48.270;9.996;2024-01-16T00:57:31;5.40;;;2.10;;
21301;SDS011;10810;48.270;9.996;2024-01-16T00:59:58;4.67;;;1.97;;
21301;SDS011;10810;48.270;9.996;2024-01-16T01:02:40;5.03;;;1.97;;
21301;SDS011;10810;48.270;9.996;2024-01-16T01:05:11;5.13;;;1.97;;
21301;SDS011;10810;48.270;9.996;2024-01-16T01:07:42;5.70;;;2.10;;
21301;SDS011;10810;48.270;9.996;2024-01-16T01:10:09;6.77;;;2.20;;
21301;SDS011;10810;48.270;9.996;2024-01-16T01:12:37;4.50;;;2.03;;
21301;SDS011;10810;48.270;9.996;2024-01-16T01:15:12;3.90;;;1.93;;
21301;SDS011;10810;48.270;9.996;2024-01-16T01:17:45;4.57;;;1.77;;
21301;SDS011;10810;48.270;9.996;2024-01-16T01:20:18;7.47;;;2.57;;
21301;SDS011;10810;48.270;9.996;2024-01-16T01:23:06;5.47;;;2.10;;
21301;SDS011;10810;48.270;9.996;2024-01-16T01:25:59;5.77;;;1.93;;
21301;SDS011;10810;48.270;9.996;2024-01-16T01:28:29;6.90;;;2.30;;
21301;SDS011;10810;48.270;9.996;2024-01-16T01:31:14;3.40;;;1.80;;
21301;SDS011;10810;48.270;9.996;2024-01-16T01:33:43;5.23;;;2.00;;
21301;SDS011;10810;48.270;9.996;2024-01-16T01:36:12;4.90;;;2.10;;
21301;SDS011;10810;48.270;9.996;2024-01-16T01:39:07;3.30;;;1.80;;
21301;SDS011;10810;48.270;9.996;2024-01-16T01:41:40;8.00;;;2.43;;
21301;SDS011;10810;48.270;9.996;2024-01-16T01:44:08;4.57;;;2.00;;
21301;SDS011;10810;48.270;9.996;2024-01-16T01:46:48;5.57;;;2.40;;
21301;SDS011;10810;48.270;9.996;2024-01-16T01:49:16;7.37;;;2.03;;
21301;SDS011;10810;48.270;9.996;2024-01-16T01:51:44;5.60;;;2.17;;
21301;SDS011;10810;48.270;9.996;2024-01-16T01:54:15;5.27;;;1.77;;
21301;SDS011;10810;48.270;9.996;2024-01-16T01:56:42;8.10;;;1.83;;
21301;SDS011;10810;48.270;9.996;2024-01-16T01:59:14;6.27;;;1.80;;
21301;SDS011;10810;48.270;9.996;2024-01-16T02:01:56;7.97;;;2.23;;
21301;SDS011;10810;48.270;9.996;2024-01-16T02:04:26;4.07;;;2.07;;
21301;SDS011;10810;48.270;9.996;2024-01-16T02:06:59;5.40;;;2.17;;
21301;SDS011;10810;48.270;9.996;2024-01-16T02:09:30;5.03;;;2.30;;
21301;SDS011;10810;48.270;9.996;2024-01-16T02:11:59;7.87;;;2.37;;
21301;SDS011;10810;48.270;9.996;2024-01-16T02:14:38;4.00;;;1.90;;
21301;SDS011;10810;48.270;9.996;2024-01-16T02:17:20;8.77;;;2.27;;
21301;SDS011;10810;48.270;9.996;2024-01-16T02:19:47;4.17;;;2.00;;
21301;SDS011;10810;48.270;9.996;2024-01-16T02:22:23;5.27;;;1.80;;
21301;SDS011;10810;48.270;9.996;2024-01-16T02:24:54;4.93;;;2.07;;
21301;SDS011;10810;48.270;9.996;2024-01-16T02:27:29;5.63;;;1.97;;
21301;SDS011;10810;48.270;9.996;2024-01-16T02:29:57;7.33;;;2.07;;
21301;SDS011;10810;48.270;9.996;2024-01-16T02:32:24;4.83;;;2.00;;
21301;SDS011;10810;48.270;9.996;2024-01-16T02:34:51;5.17;;;2.10;;
21301;SDS011;10810;48.270;9.996;2024-01-16T02:37:19;4.67;;;1.77;;
21301;SDS011;10810;48.270;9.996;2024-01-16T02:39:48;6.80;;;2.00;;
21301;SDS011;10810;48.270;9.996;2024-01-16T02:42:19;5.37;;;2.20;;
21301;SDS011;10810;48.270;9.996;2024-01-16T02:44:53;5.60;;;2.13;;
21301;SDS011;10810;48.270;9.996;2024-01-16T02:47:20;6.67;;;2.07;;
21301;SDS011;10810;48.270;9.996;2024-01-16T02:49:56;6.47;;;2.17;;
21301;SDS011;10810;48.270;9.996;2024-01-16T02:52:30;5.33;;;2.10;;
21301;SDS011;10810;48.270;9.996;2024-01-16T02:55:45;3.50;;;1.67;;
21301;SDS011;10810;48.270;9.996;2024-01-16T02:58:17;3.93;;;1.77;;
21301;SDS011;10810;48.270;9.996;2024-01-16T03:00:44;6.13;;;1.90;;
21301;SDS011;10810;48.270;9.996;2024-01-16T03:03:38;5.23;;;2.07;;
21301;SDS011;10810;48.270;9.996;2024-01-16T03:06:20;7.13;;;1.70;;
21301;SDS011;10810;48.270;9.996;2024-01-16T03:08:55;7.10;;;2.30;;
21301;SDS011;10810;48.270;9.996;2024-01-16T03:11:51;5.67;;;2.00;;
21301;SDS011;10810;48.270;9.996;2024-01-16T03:17:15;4.70;;;1.97;;
21301;SDS011;10810;48.270;9.996;2024-01-16T03:19:43;4.57;;;2.00;;
21301;SDS011;10810;48.270;9.996;2024-01-16T03:22:13;3.80;;;2.00;;
21301;SDS011;10810;48.270;9.996;2024-01-16T03:25:10;5.07;;;1.80;;
21301;SDS011;10810;48.270;9.996;2024-01-16T03:27:48;6.80;;;1.87;;
21301;SDS011;10810;48.270;9.996;2024-01-16T03:36:17;7.40;;;1.90;;
21301;SDS011;10810;48.270;9.996;2024-01-16T03:38:47;4.27;;;2.07;;
21301;SDS011;10810;48.270;9.996;2024-01-16T03:41:18;3.83;;;1.73;;
21301;SDS011;10810;48.270;9.996;2024-01-16T03:43:54;6.23;;;1.80;;
21301;SDS011;10810;48.270;9.996;2024-01-16T03:46:25;5.53;;;2.20;;
21301;SDS011;10810;48.270;9.996;2024-01-16T03:48:54;4.43;;;1.50;;
21301;SDS011;10810;48.270;9.996;2024-01-16T03:51:23;3.80;;;1.80;;
21301;SDS011;10810;48.270;9.996;2024-01-16T03:53:50;7.57;;;1.63;;
21301;SDS011;10810;48.270;9.996;2024-01-16T03:56:17;4.23;;;1.97;;
21301;SDS011;10810;48.270;9.996;2024-01-16T03:59:03;11.03;;;2.00;;
21301;SDS011;10810;48.270;9.996;2024-01-16T04:01:33;4.83;;;1.97;;
21301;SDS011;10810;48.270;9.996;2024-01-16T04:04:15;3.80;;;1.80;;
21301;SDS011;10810;48.270;9.996;2024-01-16T04:21:01;5.60;;;2.20;;
21301;SDS011;10810;48.270;9.996;2024-01-16T04:23:28;6.57;;;1.97;;
21301;SDS011;10810;48.270;9.996;2024-01-16T04:26:15;6.87;;;1.77;;
21301;SDS011;10810;48.270;9.996;2024-01-16T04:28:54;4.87;;;1.67;;
21301;SDS011;10810;48.270;9.996;2024-01-16T04:31:53;3.53;;;1.73;;
21301;SDS011;10810;48.270;9.996;2024-01-16T04:34:20;4.47;;;1.90;;
21301;SDS011;10810;48.270;9.996;2024-01-16T04:36:49;4.20;;;1.90;;
21301;SDS011;10810;48.270;9.996;2024-01-16T04:39:22;3.90;;;1.70;;
21301;SDS011;10810;48.270;9.996;2024-01-16T04:42:03;5.50;;;1.80;;
21301;SDS011;10810;48.270;9.996;2024-01-16T04:44:36;5.23;;;1.90;;
21301;SDS011;10810;48.270;9.996;2024-01-16T04:50:24;4.57;;;1.80;;
21301;SDS011;10810;48.270;9.996;2024-01-16T04:52:58;5.47;;;2.13;;
21301;SDS011;10810;48.270;9.996;2024-01-16T04:55:27;5.40;;;1.97;;
21301;SDS011;10810;48.270;9.996;2024-01-16T05:01:22;5.10;;;1.70;;
21301;SDS011;10810;48.270;9.996;2024-01-16T05:03:57;4.37;;;1.80;;
21301;SDS011;10810;48.270;9.996;2024-01-16T05:06:35;4.70;;;1.80;;
21301;SDS011;10810;48.270;9.996;2024-01-16T05:09:05;6.83;;;2.00;;
21301;SDS011;10810;48.270;9.996;2024-01-16T05:11:48;5.90;;;2.10;;
21301;SDS011;10810;48.270;9.996;2024-01-16T05:14:19;6.83;;;2.00;;
21301;SDS011;10810;48.270;9.996;2024-01-16T05:16:51;11.93;;;3.07;;
21301;SDS011;10810;48.270;9.996;2024-01-16T05:19:21;12.83;;;4.33;;
21301;SDS011;10810;48.270;9.996;2024-01-16T05:22:11;20.57;;;5.60;;
21301;SDS011;10810;48.270;9.996;2024-01-16T05:24:46;10.37;;;2.87;;
21301;SDS011;10810;48.270;9.996;2024-01-16T05:27:20;9.47;;;2.33;;
21301;SDS011;10810;48.270;9.996;2024-01-16T05:29:51;7.07;;;2.43;;
21301;SDS011;10810;48.270;9.996;2024-01-16T05:32:53;8.27;;;3.20;;
21301;SDS011;10810;48.270;9.996;2024-01-16T05:35:30;4.97;;;2.43;;
21301;SDS011;10810;48.270;9.996;2024-01-16T05:37:59;6.30;;;2.13;;
21301;SDS011;10810;48.270;9.996;2024-01-16T05:40:30;4.87;;;1.90;;
21301;SDS011;10810;48.270;9.996;2024-01-16T05:42:57;4.90;;;1.87;;
21301;SDS011;10810;48.270;9.996;2024-01-16T05:45:35;6.47;;;2.33;;
21301;SDS011;10810;48.270;9.996;2024-01-16T05:48:47;8.17;;;3.13;;
21301;SDS011;10810;48.270;9.996;2024-01-16T05:51:05;7.80;;;2.57;;
21301;SDS011;10810;48.270;9.996;2024-01-16T05:53:33;7.63;;;2.40;;
21301;SDS011;10810;48.270;9.996;2024-01-16T05:56:14;9.70;;;2.77;;
21301;SDS011;10810;48.270;9.996;2024-01-16T05:58:41;10.93;;;3.10;;
21301;SDS011;10810;48.270;9.996;2024-01-16T06:01:09;7.53;;;2.90;;
21301;SDS011;10810;48.270;9.996;2024-01-16T06:03:38;6.27;;;2.00;;
21301;SDS011;10810;48.270;9.996;2024-01-16T06:06:06;3.67;;;1.70;;
21301;SDS011;10810;48.270;9.996;2024-01-16T06:08:33;4.80;;;1.53;;
21301;SDS011;10810;48.270;9.996;2024-01-16T06:11:00;5.00;;;2.33;;
21301;SDS011;10810;48.270;9.996;2024-01-16T06:13:29;6.57;;;2.10;;
21301;SDS011;10810;48.270;9.996;2024-01-16T06:15:58;5.87;;;2.20;;
21301;SDS011;10810;48.270;9.996;2024-01-16T06:18:25;5.87;;;2.10;;
21301;SDS011;10810;48.270;9.996;2024-01-16T06:20:54;8.23;;;2.83;;
21301;SDS011;10810;48.270;9.996;2024-01-16T06:23:23;7.33;;;2.33;;
21301;SDS011;10810;48.270;9.996;2024-01-16T06:25:52;4.57;;;2.10;;
21301;SDS011;10810;48.270;9.996;2024-01-16T06:28:19;6.47;;;2.37;;
21301;SDS011;10810;48.270;9.996;2024-01-16T06:30:48;10.87;;;2.27;;
21301;SDS011;10810;48.270;9.996;2024-01-16T06:33:15;9.53;;;2.57;;
21301;SDS011;10810;48.270;9.996;2024-01-16T06:35:44;5.70;;;2.27;;
21301;SDS011;10810;48.270;9.996;2024-01-16T06:38:11;5.13;;;2.47;;
21301;SDS011;10810;48.270;9.996;2024-01-16T06:40:44;5.80;;;1.83;;
21301;SDS011;10810;48.270;9.996;2024-01-16T06:43:12;8.50;;;2.17;;
21301;SDS011;10810;48.270;9.996;2024-01-16T06:45:40;7.40;;;2.13;;
21301;SDS011;10810;48.270;9.996;2024-01-16T06:48:19;6.10;;;2.33;;
21301;SDS011;10810;48.270;9.996;2024-01-16T06:50:49;5.17;;;2.20;;
21301;SDS011;10810;48.270;9.996;2024-01-16T06:54:54;6.90;;;2.83;;
21301;SDS011;10810;48.270;9.996;2024-01-16T06:56:10;7.10;;;3.07;;
21301;SDS011;10810;48.270;9.996;2024-01-16T06:58:43;7.33;;;2.37;;
21301;SDS011;10810;48.270;9.996;2024-01-16T07:01:12;8.90;;;2.87;;
21301;SDS011;10810;48.270;9.996;2024-01-16T07:03:45;4.53;;;2.13;;
21301;SDS011;10810;48.270;9.996;2024-01-16T07:06:12;6.23;;;2.70;;
21301;SDS011;10810;48.270;9.996;2024-01-16T07:08:40;5.20;;;2.17;;
21301;SDS011;10810;48.270;9.996;2024-01-16T07:11:10;7.83;;;2.80;;
21301;SDS011;10810;48.270;9.996;2024-01-16T07:13:38;7.03;;;2.47;;
21301;SDS011;10810;48.270;9.996;2024-01-16T07:16:06;6.33;;;2.37;;
21301;SDS011;10810;48.270;9.996;2024-01-16T07:18:49;7.47;;;2.80;;
21301;SDS011;10810;48.270;9.996;2024-01-16T07:24:28;13.05;;;3.70;;
21301;SDS011;10810;48.270;9.996;2024-01-16T07:27:01;14.03;;;3.80;;
21301;SDS011;10810;48.270;9.996;2024-01-16T07:29:29;13.00;;;3.90;;
21301;SDS011;10810;48.270;9.996;2024-01-16T07:31:56;12.50;;;3.73;;
21301;SDS011;10810;48.270;9.996;2024-01-16T07:34:23;10.27;;;3.87;;
21301;SDS011;10810;48.270;9.996;2024-01-16T07:36:51;11.63;;;3.70;;
21301;SDS011;10810;48.270;9.996;2024-01-16T07:39:20;10.40;;;3.40;;
21301;SDS011;10810;48.270;9.996;2024-01-16T07:41:48;10.20;;;3.20;;
21301;SDS011;10810;48.270;9.996;2024-01-16T07:44:17;6.20;;;2.70;;
21301;SDS011;10810;48.270;9.996;2024-01-16T07:46:44;8.73;;;2.60;;
21301;SDS011;10810;48.270;9.996;2024-01-16T07:49:12;8.27;;;2.80;;
21301;SDS011;10810;48.270;9.996;2024-01-16T07:51:42;6.40;;;2.90;;
21301;SDS011;10810;48.270;9.996;2024-01-16T07:54:10;10.43;;;3.13;;
21301;SDS011;10810;48.270;9.996;2024-01-16T07:56:39;11.47;;;3.20;;
21301;SDS011;10810;48.270;9.996;2024-01-16T07:59:08;9.37;;;3.30;;
21301;SDS011;10810;48.270;9.996;2024-01-16T08:01:35;6.30;;;2.57;;
21301;SDS011;10810;48.270;9.996;2024-01-16T08:04:02;6.23;;;2.60;;
21301;SDS011;10810;48.270;9.996;2024-01-16T08:06:30;7.73;;;2.70;;
21301;SDS011;10810;48.270;9.996;2024-01-16T08:08:57;6.40;;;2.33;;
21301;SDS011;10810;48.270;9.996;2024-01-16T08:11:24;5.63;;;2.20;;
21301;SDS011;10810;48.270;9.996;2024-01-16T08:13:53;5.43;;;2.27;;
21301;SDS011;10810;48.270;9.996;2024-01-16T08:16:21;6.47;;;2.17;;
21301;SDS011;10810;48.270;9.996;2024-01-16T08:18:48;11.20;;;2.63;;
21301;SDS011;10810;48.270;9.996;2024-01-16T08:21:17;9.10;;;3.33;;
21301;SDS011;10810;48.270;9.996;2024-01-16T08:23:51;5.77;;;2.60;;
21301;SDS011;10810;48.270;9.996;2024-01-16T08:26:19;5.77;;;2.30;;
21301;SDS011;10810;48.270;9.996;2024-01-16T08:28:46;8.83;;;2.80;;
21301;SDS011;10810;48.270;9.996;2024-01-16T08:31:17;6.93;;;2.97;;
21301;SDS011;10810;48.270;9.996;2024-01-16T08:33:45;7.23;;;2.33;;
21301;SDS011;10810;48.270;9.996;2024-01-16T08:36:12;6.57;;;2.30;;
21301;SDS011;10810;48.270;9.996;2024-01-16T08:38:40;8.27;;;2.67;;
21301;SDS011;10810;48.270;9.996;2024-01-16T08:41:07;5.57;;;2.77;;
21301;SDS011;10810;48.270;9.996;2024-01-16T08:43:34;4.47;;;2.07;;
21301;SDS011;10810;48.270;9.996;2024-01-16T08:46:02;6.60;;;2.07;;
21301;SDS011;10810;48.270;9.996;2024-01-16T08:48:31;8.60;;;2.37;;
21301;SDS011;10810;48.270;9.996;2024-01-16T08:50:58;6.93;;;2.70;;
21301;SDS011;10810;48.270;9.996;2024-01-16T08:53:26;9.30;;;2.80;;
21301;SDS011;10810;48.270;9.996;2024-01-16T08:56:05;8.50;;;2.90;;
21301;SDS011;10810;48.270;9.996;2024-01-16T08:58:33;6.73;;;2.63;;
21301;SDS011;10810;48.270;9.996;2024-01-16T09:01:02;7.77;;;2.23;;
21301;SDS011;10810;48.270;9.996;2024-01-16T09:03:32;8.77;;;2.47;;
21301;SDS011;10810;48.270;9.996;2024-01-16T09:05:59;12.03;;;3.00;;
21301;SDS011;10810;48.270;9.996;2024-01-16T09:08:26;12.13;;;3.23;;
21301;SDS011;10810;48.270;9.996;2024-01-16T09:10:53;7.90;;;3.20;;
21301;SDS011;10810;48.270;9.996;2024-01-16T09:13:21;11.10;;;4.00;;
21301;SDS011;10810;48.270;9.996;2024-01-16T09:15:48;9.63;;;3.93;;
21301;SDS011;10810;48.270;9.996;2024-01-16T09:18:16;11.57;;;4.17;;
21301;SDS011;10810;48.270;9.996;2024-01-16T09:20:44;15.67;;;5.93;;
21301;SDS011;10810;48.270;9.996;2024-01-16T09:23:19;24.13;;;9.23;;
21301;SDS011;10810;48.270;9.996;2024-01-16T09:25:49;33.43;;;10.93;;
21301;SDS011;10810;48.270;9.996;2024-01-16T09:28:18;15.03;;;5.30;;
21301;SDS011;10810;48.270;9.996;2024-01-16T09:30:45;12.63;;;4.57;;
21301;SDS011;10810;48.270;9.996;2024-01-16T09:33:12;15.83;;;4.73;;
21301;SDS011;10810;48.270;9.996;2024-01-16T09:35:41;18.07;;;4.60;;
21301;SDS011;10810;48.270;9.996;2024-01-16T09:38:10;13.70;;;5.00;;
21301;SDS011;10810;48.270;9.996;2024-01-16T09:40:37;13.70;;;4.10;;
21301;SDS011;10810;48.270;9.996;2024-01-16T09:43:05;14.97;;;4.70;;
21301;SDS011;10810;48.270;9.996;2024-01-16T09:45:33;14.47;;;4.47;;
21301;SDS011;10810;48.270;9.996;2024-01-16T09:48:04;11.10;;;4.70;;
21301;SDS011;10810;48.270;9.996;2024-01-16T09:50:33;13.20;;;4.13;;
21301;SDS011;10810;48.270;9.996;2024-01-16T09:53:00;13.10;;;4.20;;
21301;SDS011;10810;48.270;9.996;2024-01-16T09:55:29;10.20;;;3.67;;
21301;SDS011;10810;48.270;9.996;2024-01-16T09:57:57;9.83;;;3.77;;
21301;SDS011;10810;48.270;9.996;2024-01-16T10:00:25;9.47;;;3.30;;
21301;SDS011;10810;48.270;9.996;2024-01-16T10:02:53;7.87;;;3.07;;
21301;SDS011;10810;48.270;9.996;2024-01-16T10:05:23;8.60;;;4.03;;
21301;SDS011;10810;48.270;9.996;2024-01-16T10:07:51;8.33;;;3.60;;
21301;SDS011;10810;48.270;9.996;2024-01-16T10:10:18;11.13;;;4.03;;
21301;SDS011;10810;48.270;9.996;2024-01-16T10:12:48;10.20;;;3.90;;
21301;SDS011;10810;48.270;9.996;2024-01-16T10:15:17;12.13;;;3.80;;
21301;SDS011;10810;48.270;9.996;2024-01-16T10:17:47;9.50;;;3.73;;
21301;SDS011;10810;48.270;9.996;2024-01-16T10:20:15;14.00;;;4.50;;
21301;SDS011;10810;48.270;9.996;2024-01-16T10:22:52;10.03;;;4.10;;
21301;SDS011;10810;48.270;9.996;2024-01-16T10:25:19;14.90;;;3.73;;
21301;SDS011;10810;48.270;9.996;2024-01-16T10:27:49;11.70;;;4.53;;
21301;SDS011;10810;48.270;9.996;2024-01-16T10:30:28;12.07;;;3.87;;
21301;SDS011;10810;48.270;9.996;2024-01-16T10:32:55;8.17;;;3.60;;
21301;SDS011;10810;48.270;9.996;2024-01-16T10:35:39;11.27;;;3.60;;
21301;SDS011;10810;48.270;9.996;2024-01-16T10:38:07;11.23;;;3.80;;
21301;SDS011;10810;48.270;9.996;2024-01-16T10:40:34;9.73;;;3.70;;
21301;SDS011;10810;48.270;9.996;2024-01-16T10:43:03;11.13;;;4.00;;
21301;SDS011;10810;48.270;9.996;2024-01-16T10:45:30;11.43;;;4.00;;
21301;SDS011;10810;48.270;9.996;2024-01-16T10:48:01;12.33;;;3.83;;
21301;SDS011;10810;48.270;9.996;2024-01-16T10:50:29;10.37;;;3.63;;
21301;SDS011;10810;48.270;9.996;2024-01-16T10:52:56;10.70;;;4.13;;
21301;SDS011;10810;48.270;9.996;2024-01-16T10:55:27;15.00;;;3.90;;
21301;SDS011;10810;48.270;9.996;2024-01-16T10:57:55;10.90;;;3.83;;
21301;SDS011;10810;48.270;9.996;2024-01-16T11:00:31;14.70;;;4.10;;
21301;SDS011;10810;48.270;9.996;2024-01-16T11:03:01;9.77;;;3.53;;
21301;SDS011;10810;48.270;9.996;2024-01-16T11:05:31;8.83;;;3.37;;
21301;SDS011;10810;48.270;9.996;2024-01-16T11:08:00;10.43;;;3.73;;
21301;SDS011;10810;48.270;9.996;2024-01-16T11:10:28;10.27;;;3.40;;
21301;SDS011;10810;48.270;9.996;2024-01-16T11:12:56;11.07;;;3.30;;
21301;SDS011;10810;48.270;9.996;2024-01-16T11:15:27;11.23;;;4.40;;
21301;SDS011;10810;48.270;9.996;2024-01-16T11:17:56;13.83;;;4.20;;
21301;SDS011;10810;48.270;9.996;2024-01-16T11:20:24;10.80;;;3.90;;
21301;SDS011;10810;48.270;9.996;2024-01-16T11:22:58;11.70;;;3.80;;
21301;SDS011;10810;48.270;9.996;2024-01-16T11:25:30;10.57;;;3.47;;
21301;SDS011;10810;48.270;9.996;2024-01-16T11:28:18;10.30;;;3.77;;
21301;SDS011;10810;48.270;9.996;2024-01-16T11:30:47;11.63;;;3.80;;
21301;SDS011;10810;48.270;9.996;2024-01-16T11:36:03;8.67;;;3.83;;
21301;SDS011;10810;48.270;9.996;2024-01-16T11:38:31;11.40;;;4.43;;
21301;SDS011;10810;48.270;9.996;2024-01-16T11:41:05;12.17;;;4.17;;
21301;SDS011;10810;48.270;9.996;2024-01-16T11:43:36;11.27;;;4.33;;
21301;SDS011;10810;48.270;9.996;2024-01-16T11:46:04;11.27;;;3.70;;
21301;SDS011;10810;48.270;9.996;2024-01-16T11:48:32;9.10;;;3.90;;
21301;SDS011;10810;48.270;9.996;2024-01-16T11:51:06;9.03;;;3.30;;
21301;SDS011;10810;48.270;9.996;2024-01-16T11:53:51;7.80;;;2.60;;
21301;SDS011;10810;48.270;9.996;2024-01-16T11:56:38;10.60;;;3.17;;
21301;SDS011;10810;48.270;9.996;2024-01-16T11:59:35;8.20;;;2.80;;
21301;SDS011;10810;48.270;9.996;2024-01-16T12:02:26;6.23;;;2.60;;
21301;SDS011;10810;48.270;9.996;2024-01-16T12:05:04;5.23;;;2.53;;
21301;SDS011;10810;48.270;9.996;2024-01-16T12:07:44;5.73;;;2.47;;
21301;SDS011;10810;48.270;9.996;2024-01-16T12:10:14;7.20;;;2.40;;
21301;SDS011;10810;48.270;9.996;2024-01-16T12:12:41;9.20;;;2.40;;
21301;SDS011;10810;48.270;9.996;2024-01-16T12:15:12;3.33;;;1.70;;
21301;SDS011;10810;48.270;9.996;2024-01-16T12:17:50;5.77;;;1.70;;
21301;SDS011;10810;48.270;9.996;2024-01-16T12:20:20;3.17;;;1.80;;
21301;SDS011;10810;48.270;9.996;2024-01-16T12:22:59;3.43;;;1.50;;
21301;SDS011;10810;48.270;9.996;2024-01-16T12:25:28;3.47;;;1.30;;
21301;SDS011;10810;48.270;9.996;2024-01-16T12:27:56;2.10;;;1.30;;
21301;SDS011;10810;48.270;9.996;2024-01-16T12:30:26;3.53;;;1.30;;
21301;SDS011;10810;48.270;9.996;2024-01-16T12:33:06;2.90;;;1.30;;
21301;SDS011;10810;48.270;9.996;2024-01-16T12:35:34;3.97;;;1.70;;
21301;SDS011;10810;48.270;9.996;2024-01-16T12:38:06;5.53;;;1.73;;
21301;SDS011;10810;48.270;9.996;2024-01-16T12:40:35;3.47;;;1.50;;
21301;SDS011;10810;48.270;9.996;2024-01-16T12:43:04;5.40;;;1.90;;
21301;SDS011;10810;48.270;9.996;2024-01-16T12:45:31;5.13;;;2.00;;
21301;SDS011;10810;48.270;9.996;2024-01-16T12:48:00;5.23;;;2.00;;
21301;SDS011;10810;48.270;9.996;2024-01-16T12:50:42;3.77;;;1.70;;
21301;SDS011;10810;48.270;9.996;2024-01-16T12:53:14;4.93;;;2.10;;
21301;SDS011;10810;48.270;9.996;2024-01-16T12:55:48;4.17;;;1.97;;
21301;SDS011;10810;48.270;9.996;2024-01-16T12:58:31;6.47;;;2.70;;
21301;SDS011;10810;48.270;9.996;2024-01-16T13:03:49;4.20;;;2.00;;
21301;SDS011;10810;48.270;9.996;2024-01-16T13:06:17;5.50;;;2.10;;
21301;SDS011;10810;48.270;9.996;2024-01-16T13:08:46;6.20;;;2.30;;
21301;SDS011;10810;48.270;9.996;2024-01-16T13:11:20;5.23;;;2.23;;
21301;SDS011;10810;48.270;9.996;2024-01-16T13:13:47;5.20;;;2.23;;
21301;SDS011;10810;48.270;9.996;2024-01-16T13:16:16;4.57;;;2.17;;
21301;SDS011;10810;48.270;9.996;2024-01-16T13:18:59;6.87;;;2.63;;
21301;SDS011;10810;48.270;9.996;2024-01-16T13:21:29;4.23;;;1.67;;
21301;SDS011;10810;48.270;9.996;2024-01-16T13:23:57;5.10;;;2.10;;
21301;SDS011;10810;48.270;9.996;2024-01-16T13:26:25;4.50;;;1.90;;
21301;SDS011;10810;48.270;9.996;2024-01-16T13:28:52;7.17;;;2.03;;
21301;SDS011;10810;48.270;9.996;2024-01-16T13:31:19;6.30;;;2.13;;
21301;SDS011;10810;48.270;9.996;2024-01-16T13:33:49;6.37;;;1.90;;
21301;SDS011;10810;48.270;9.996;2024-01-16T13:36:19;7.23;;;2.27;;
21301;SDS011;10810;48.270;9.996;2024-01-16T13:38:47;14.73;;;2.57;;
21301;SDS011;10810;48.270;9.996;2024-01-16T13:41:16;7.37;;;2.37;;
21301;SDS011;10810;48.270;9.996;2024-01-16T13:43:43;10.83;;;4.17;;
21301;SDS011;10810;48.270;9.996;2024-01-16T13:46:10;8.13;;;2.40;;
21301;SDS011;10810;48.270;9.996;2024-01-16T13:48:39;8.37;;;2.63;;
21301;SDS011;10810;48.270;9.996;2024-01-16T13:51:07;6.93;;;2.47;;
21301;SDS011;10810;48.270;9.996;2024-01-16T13:53:38;6.00;;;2.50;;
21301;SDS011;10810;48.270;9.996;2024-01-16T13:56:05;6.63;;;2.60;;
21301;SDS011;10810;48.270;9.996;2024-01-16T13:58:34;6.57;;;2.30;;
21301;SDS011;10810;48.270;9.996;2024-01-16T14:01:01;4.77;;;2.10;;
21301;SDS011;10810;48.270;9.996;2024-01-16T14:03:29;7.20;;;2.27;;
21301;SDS011;10810;48.270;9.996;2024-01-16T14:05:56;4.60;;;2.30;;
21301;SDS011;10810;48.270;9.996;2024-01-16T14:08:24;7.47;;;2.40;;
21301;SDS011;10810;48.270;9.996;2024-01-16T14:10:52;7.23;;;2.77;;
21301;SDS011;10810;48.270;9.996;2024-01-16T14:13:19;5.37;;;2.30;;
21301;SDS011;10810;48.270;9.996;2024-01-16T14:15:48;5.20;;;2.20;;
21301;SDS011;10810;48.270;9.996;2024-01-16T14:18:18;6.37;;;2.30;;
21301;SDS011;10810;48.270;9.996;2024-01-16T14:20:45;8.53;;;3.07;;
21301;SDS011;10810;48.270;9.996;2024-01-16T14:23:13;6.03;;;2.50;;
21301;SDS011;10810;48.270;9.996;2024-01-16T14:25:44;8.00;;;2.67;;
21301;SDS011;10810;48.270;9.996;2024-01-16T14:28:11;10.03;;;2.97;;
21301;SDS011;10810;48.270;9.996;2024-01-16T14:30:39;6.67;;;2.80;;
21301;SDS011;10810;48.270;9.996;2024-01-16T14:33:11;11.37;;;3.57;;
21301;SDS011;10810;48.270;9.996;2024-01-16T14:35:38;8.67;;;2.83;;
21301;SDS011;10810;48.270;9.996;2024-01-16T14:38:08;7.93;;;2.33;;
21301;SDS011;10810;48.270;9.996;2024-01-16T14:40:35;9.73;;;2.67;;
21301;SDS011;10810;48.270;9.996;2024-01-16T14:43:02;6.47;;;2.50;;
21301;SDS011;10810;48.270;9.996;2024-01-16T14:45:30;6.13;;;2.70;;
21301;SDS011;10810;48.270;9.996;2024-01-16T14:47:57;7.30;;;2.53;;
21301;SDS011;10810;48.270;9.996;2024-01-16T14:50:29;10.13;;;2.83;;
21301;SDS011;10810;48.270;9.996;2024-01-16T14:52:56;10.37;;;2.90;;
21301;SDS011;10810;48.270;9.996;2024-01-16T14:55:23;7.10;;;2.57;;
21301;SDS011;10810;48.270;9.996;2024-01-16T14:57:51;7.30;;;2.70;;
21301;SDS011;10810;48.270;9.996;2024-01-16T15:00:25;8.00;;;2.77;;
21301;SDS011;10810;48.270;9.996;2024-01-16T15:02:53;8.00;;;2.87;;
21301;SDS011;10810;48.270;9.996;2024-01-16T15:08:25;12.53;;;2.70;;
21301;SDS011;10810;48.270;9.996;2024-01-16T15:10:59;8.13;;;2.73;;
21301;SDS011;10810;48.270;9.996;2024-01-16T15:13:39;8.17;;;3.27;;
21301;SDS011;10810;48.270;9.996;2024-01-16T15:16:06;7.57;;;2.77;;
21301;SDS011;10810;48.270;9.996;2024-01-16T15:18:36;6.37;;;2.60;;
21301;SDS011;10810;48.270;9.996;2024-01-16T15:21:04;8.63;;;2.97;;
21301;SDS011;10810;48.270;9.996;2024-01-16T15:23:34;11.97;;;3.20;;
21301;SDS011;10810;48.270;9.996;2024-01-16T15:26:03;11.97;;;3.63;;
21301;SDS011;10810;48.270;9.996;2024-01-16T15:28:30;8.30;;;3.27;;
21301;SDS011;10810;48.270;9.996;2024-01-16T15:30:59;10.43;;;3.73;;
21301;SDS011;10810;48.270;9.996;2024-01-16T15:33:31;11.67;;;3.23;;
21301;SDS011;10810;48.270;9.996;2024-01-16T15:35:59;9.00;;;3.67;;
21301;SDS011;10810;48.270;9.996;2024-01-16T15:38:27;6.90;;;3.20;;
21301;SDS011;10810;48.270;9.996;2024-01-16T15:40:55;9.70;;;3.60;;
21301;SDS011;10810;48.270;9.996;2024-01-16T15:43:22;11.97;;;3.23;;
21301;SDS011;10810;48.270;9.996;2024-01-16T15:45:49;8.30;;;3.10;;
21301;SDS011;10810;48.270;9.996;2024-01-16T15:48:21;6.63;;;2.70;;
21301;SDS011;10810;48.270;9.996;2024-01-16T15:50:49;7.47;;;2.53;;
21301;SDS011;10810;48.270;9.996;2024-01-16T15:53:17;12.73;;;4.80;;
21301;SDS011;10810;48.270;9.996;2024-01-16T15:55:45;12.27;;;4.33;;
21301;SDS011;10810;48.270;9.996;2024-01-16T15:58:19;9.70;;;3.27;;
21301;SDS011;10810;48.270;9.996;2024-01-16T16:00:46;7.17;;;2.30;;